KYKN/YKN METAR and TAF weather

Enter ICAO airport designator
Station Type Date Time Source
KYKN METAR 2019/12/06 08:56 UTC NOAA

KYKN 060856Z AUTO 33013KT 10SM OVC013 M03/M06 A3038 RMK AO2 SLP315 T10281056 51023 FZRANO


Station Type Date Time Source
KYKN Decoded METAR 2019/12/06 08:56 UTC NOAA

Yankton, Chan Gurney Municipal Airport, SD, United States (KYKN) 42-55N 097-23W
Dec 06, 2019 - 03:56 AM EST / 2019.12.06 0856 UTC
Wind: from the NNW (330 degrees) at 15 MPH (13 KT):0
Visibility: 10 mile(s):0
Sky conditions: overcast
Temperature: 27.0 F (-2.8 C)
Windchill: 15 F (-9 C):1
Dew Point: 21.9 F (-5.6 C)
Relative Humidity: 81%
Pressure (altimeter): 30.38 in. Hg (1028 hPa)
Pressure tendency: 0.07 inches (2.3 hPa) higher than three hours ago
ob: KYKN 060856Z AUTO 33013KT 10SM OVC013 M03/M06 A3038 RMK AO2 SLP315 T10281056 51023 FZRANO
cycle: 9

Station Type Date Time Source
KYKN TAF UTC NOAA

Error!

Example: see airport list